Time;durP1;ratioP1;P1;durP2;ratioP2;P2;SDS_P1;SDS_P2;PMS_P1;PMS_P2;Temp;Humidity;BMP_temperature;BMP_pressure;BME280_temperature;BME280_humidity;BME280_pressure;Samples;Min_cycle;Max_cycle;Signal;HPM_P1;HPM_P2
2022/05/26 00:01:30;;;;;;;2.80;2.60;;;;;;;;;;5021721;28;20177;-55
2022/05/26 00:03:58;;;;;;;2.90;2.60;;;;;;;;;;5017860;28;20181;-55
2022/05/26 00:06:25;;;;;;;2.57;2.37;;;;;;;;;;5026579;28;20328;-55
2022/05/26 00:08:57;;;;;;;3.00;2.70;;;;;;;;;;5054547;28;20180;-56
2022/05/26 00:11:26;;;;;;;2.50;2.30;;;;;;;;;;5039271;28;20185;-55
2022/05/26 00:13:53;;;;;;;2.83;2.40;;;;;;;;;;5061282;28;20561;-56
2022/05/26 00:16:19;;;;;;;2.70;2.50;;;;;;;;;;5060554;28;20539;-54
2022/05/26 00:18:46;;;;;;;2.60;2.40;;;;;;;;;;5063103;28;20203;-55
2022/05/26 00:21:12;;;;;;;3.30;2.37;;;;;;;;;;5062720;28;20587;-55
2022/05/26 00:23:38;;;;;;;2.57;2.37;;;;;;;;;;5042539;28;20664;-55
2022/05/26 00:26:11;;;;;;;2.83;2.63;;;;;;;;;;5054740;28;20539;-57
2022/05/26 00:28:37;;;;;;;2.90;2.50;;;;;;;;;;5039752;28;20188;-55
2022/05/26 00:31:04;;;;;;;2.70;2.50;;;;;;;;;;5047948;28;20662;-54
2022/05/26 00:33:30;;;;;;;2.53;2.33;;;;;;;;;;5063848;28;20308;-56
2022/05/26 00:36:02;;;;;;;3.30;2.53;;;;;;;;;;5061971;28;20176;-55
2022/05/26 00:38:29;;;;;;;2.53;2.33;;;;;;;;;;5042864;28;20258;-55
2022/05/26 00:41:00;;;;;;;2.80;2.60;;;;;;;;;;5058719;28;20543;-56
2022/05/26 00:43:30;;;;;;;2.70;2.50;;;;;;;;;;5055566;28;20180;-55
2022/05/26 00:46:02;;;;;;;2.73;2.53;;;;;;;;;;5038173;28;20710;-55
2022/05/26 00:48:33;;;;;;;2.93;2.67;;;;;;;;;;5035152;28;20639;-56
2022/05/26 00:51:01;;;;;;;2.57;2.37;;;;;;;;;;5061973;28;20192;-55
2022/05/26 00:53:42;;;;;;;2.80;2.60;;;;;;;;;;5038068;28;20189;-55
2022/05/26 00:56:16;;;;;;;2.30;2.10;;;;;;;;;;5035224;28;20203;-55
2022/05/26 00:58:44;;;;;;;3.30;2.63;;;;;;;;;;5037467;28;20212;-55
2022/05/26 01:01:11;;;;;;;2.53;2.33;;;;;;;;;;5040766;28;20192;-55
2022/05/26 01:03:48;;;;;;;2.40;2.20;;;;;;;;;;5049670;28;20191;-55
2022/05/26 01:06:31;;;;;;;3.87;2.57;;;;;;;;;;5036296;28;20308;-54
2022/05/26 01:09:02;;;;;;;2.67;2.13;;;;;;;;;;5032486;28;20288;-54
2022/05/26 01:11:34;;;;;;;2.70;2.50;;;;;;;;;;5033290;28;20208;-54
2022/05/26 01:14:08;;;;;;;3.13;2.80;;;;;;;;;;5018556;28;20713;-57
2022/05/26 01:16:53;;;;;;;3.77;2.40;;;;;;;;;;5039013;28;20189;-55
2022/05/26 01:19:22;;;;;;;2.23;2.13;;;;;;;;;;5015110;28;20247;-54
2022/05/26 01:21:55;;;;;;;3.27;2.70;;;;;;;;;;5046120;28;20653;-54
2022/05/26 01:24:51;;;;;;;7.60;3.00;;;;;;;;;;5042929;28;20193;-55
2022/05/26 01:27:28;;;;;;;3.53;2.80;;;;;;;;;;4953728;28;20205;-54
2022/05/26 01:30:13;;;;;;;2.83;2.63;;;;;;;;;;5038304;28;20181;-55
2022/05/26 01:32:50;;;;;;;3.40;2.57;;;;;;;;;;5045764;28;20604;-55
2022/05/26 01:35:17;;;;;;;3.30;3.00;;;;;;;;;;5040794;28;20183;-54
2022/05/26 01:37:56;;;;;;;2.33;2.13;;;;;;;;;;5024575;28;20251;-55
2022/05/26 01:40:45;;;;;;;3.47;2.90;;;;;;;;;;5033645;28;20181;-54
2022/05/26 01:43:30;;;;;;;4.43;2.57;;;;;;;;;;5033214;28;20230;-55
2022/05/26 01:46:02;;;;;;;3.63;3.33;;;;;;;;;;5031277;28;20262;-54
2022/05/26 01:48:38;;;;;;;3.00;2.70;;;;;;;;;;5038310;28;20632;-55
2022/05/26 01:51:08;;;;;;;2.43;2.30;;;;;;;;;;5033870;28;20180;-54
2022/05/26 01:53:43;;;;;;;2.80;2.60;;;;;;;;;;5017510;28;20214;-54
2022/05/26 01:56:16;;;;;;;3.43;2.70;;;;;;;;;;5034101;28;20431;-54
2022/05/26 01:58:47;;;;;;;3.57;2.77;;;;;;;;;;5039648;28;20945;-54
2022/05/26 02:01:14;;;;;;;4.33;2.83;;;;;;;;;;5040067;28;20188;-54
2022/05/26 02:03:42;;;;;;;2.60;2.40;;;;;;;;;;5033493;28;20231;-54
2022/05/26 02:06:19;;;;;;;3.00;2.70;;;;;;;;;;5040478;28;20226;-54
2022/05/26 02:08:57;;;;;;;2.67;2.47;;;;;;;;;;5042425;28;20213;-55
2022/05/26 02:11:26;;;;;;;4.27;2.60;;;;;;;;;;5032556;28;20247;-55
2022/05/26 02:13:59;;;;;;;2.20;2.00;;;;;;;;;;5051435;28;20181;-55
2022/05/26 02:16:31;;;;;;;2.60;2.40;;;;;;;;;;5032636;28;20187;-55
2022/05/26 02:19:04;;;;;;;2.73;2.40;;;;;;;;;;5040336;28;20212;-55
2022/05/26 02:21:34;;;;;;;2.87;2.57;;;;;;;;;;5059187;28;20616;-54
2022/05/26 02:24:02;;;;;;;2.97;2.40;;;;;;;;;;5056881;28;20173;-54
2022/05/26 02:26:30;;;;;;;2.70;2.50;;;;;;;;;;5050373;28;20702;-55
2022/05/26 02:31:42;;;;;;;3.80;3.40;;;;;;;;;;5060911;28;20241;-54
2022/05/26 02:34:09;;;;;;;2.73;2.53;;;;;;;;;;5056268;28;20181;-55
2022/05/26 02:36:36;;;;;;;2.97;2.30;;;;;;;;;;5062085;28;20177;-54
2022/05/26 02:39:03;;;;;;;3.30;3.00;;;;;;;;;;5054715;28;20208;-55
2022/05/26 02:41:33;;;;;;;2.70;2.50;;;;;;;;;;5049070;28;20545;-54
2022/05/26 02:43:59;;;;;;;3.73;3.10;;;;;;;;;;5031786;28;20178;-54
2022/05/26 02:46:44;;;;;;;4.00;3.10;;;;;;;;;;5054191;28;20169;-54
2022/05/26 02:49:24;;;;;;;2.90;2.70;;;;;;;;;;5037107;28;20191;-54
2022/05/26 02:51:53;;;;;;;2.77;2.57;;;;;;;;;;5032980;28;20260;-55
2022/05/26 02:54:38;;;;;;;3.90;3.20;;;;;;;;;;5040069;28;20181;-55
2022/05/26 02:57:10;;;;;;;2.90;2.70;;;;;;;;;;5062870;28;20654;-53
2022/05/26 02:59:36;;;;;;;4.00;3.00;;;;;;;;;;5053215;28;20675;-54
2022/05/26 03:02:35;;;;;;;5.20;2.80;;;;;;;;;;5053578;28;20934;-55
2022/05/26 03:05:04;;;;;;;2.90;2.70;;;;;;;;;;5015173;28;20223;-55
2022/05/26 03:07:32;;;;;;;3.23;2.93;;;;;;;;;;5050412;28;20349;-55
2022/05/26 03:10:00;;;;;;;3.00;2.80;;;;;;;;;;5065809;28;20180;-55
2022/05/26 03:12:29;;;;;;;3.80;2.40;;;;;;;;;;5065916;28;20181;-55
2022/05/26 03:14:55;;;;;;;3.17;2.43;;;;;;;;;;5050565;28;20173;-54
2022/05/26 03:17:21;;;;;;;2.90;2.70;;;;;;;;;;5054156;28;20663;-55
2022/05/26 03:19:48;;;;;;;2.80;2.60;;;;;;;;;;5040189;28;20180;-54
2022/05/26 03:22:14;;;;;;;3.40;3.10;;;;;;;;;;5048618;28;20184;-54
2022/05/26 03:24:43;;;;;;;3.97;3.17;;;;;;;;;;5055351;28;20183;-54
2022/05/26 03:27:10;;;;;;;3.20;3.00;;;;;;;;;;5054362;28;20169;-55
2022/05/26 03:29:36;;;;;;;2.87;2.60;;;;;;;;;;5040079;28;20272;-53
2022/05/26 03:32:03;;;;;;;6.63;6.23;;;;;;;;;;5055773;28;20643;-54
2022/05/26 03:42:45;;;;;;;4.17;2.90;;;;;;;;;;5057159;28;20175;-55
2022/05/26 03:45:11;;;;;;;4.30;3.07;;;;;;;;;;5058752;28;20233;-55
2022/05/26 03:47:39;;;;;;;3.10;2.70;;;;;;;;;;5046556;28;20185;-54
2022/05/26 03:50:05;;;;;;;6.57;2.93;;;;;;;;;;5061586;28;20202;-55
2022/05/26 03:52:31;;;;;;;3.10;2.80;;;;;;;;;;5043241;28;20705;-55
2022/05/26 03:54:57;;;;;;;3.63;3.27;;;;;;;;;;5052567;28;20177;-54
2022/05/26 03:57:24;;;;;;;3.50;3.17;;;;;;;;;;5024144;28;20181;-55
2022/05/26 03:59:50;;;;;;;3.57;3.00;;;;;;;;;;5052628;28;20177;-55
2022/05/26 04:02:22;;;;;;;9.03;8.53;;;;;;;;;;5041267;28;20371;-55
2022/05/26 04:04:48;;;;;;;3.40;3.10;;;;;;;;;;5067214;28;20176;-55
2022/05/26 04:07:14;;;;;;;9.43;8.77;;;;;;;;;;5056845;28;20752;-56
2022/05/26 04:09:43;;;;;;;3.13;2.87;;;;;;;;;;5038992;28;20242;-55
2022/05/26 04:12:13;;;;;;;4.13;2.73;;;;;;;;;;5035083;28;20186;-55
2022/05/26 04:14:39;;;;;;;3.20;2.90;;;;;;;;;;5049535;28;20662;-56
2022/05/26 04:17:06;;;;;;;3.50;3.03;;;;;;;;;;5051782;28;20181;-55
2022/05/26 04:19:32;;;;;;;4.43;3.40;;;;;;;;;;5056180;28;20231;-55
2022/05/26 04:22:18;;;;;;;3.43;3.13;;;;;;;;;;5066640;28;20697;-55
2022/05/26 04:24:48;;;;;;;3.50;2.77;;;;;;;;;;5057418;28;20169;-56
2022/05/26 04:27:16;;;;;;;7.53;7.13;;;;;;;;;;5052076;28;20222;-56
2022/05/26 04:29:42;;;;;;;4.00;3.13;;;;;;;;;;5063630;28;20185;-55
2022/05/26 04:32:08;;;;;;;3.27;2.97;;;;;;;;;;5054399;28;20258;-56
2022/05/26 04:34:34;;;;;;;3.37;2.73;;;;;;;;;;5055060;28;20189;-56
2022/05/26 04:37:04;;;;;;;3.67;2.73;;;;;;;;;;5060007;28;20179;-55
2022/05/26 04:39:33;;;;;;;3.97;3.27;;;;;;;;;;5053071;28;20200;-55
2022/05/26 04:42:00;;;;;;;3.37;3.00;;;;;;;;;;5034040;28;20184;-56
2022/05/26 04:44:29;;;;;;;3.47;3.17;;;;;;;;;;5035479;28;20196;-55
2022/05/26 04:46:58;;;;;;;2.67;2.47;;;;;;;;;;5056936;28;20558;-55
2022/05/26 04:49:24;;;;;;;3.63;3.10;;;;;;;;;;5055925;28;20618;-55
2022/05/26 04:51:50;;;;;;;3.73;2.90;;;;;;;;;;5059845;28;20194;-55
2022/05/26 04:54:16;;;;;;;3.57;3.27;;;;;;;;;;5056483;28;20267;-53
2022/05/26 04:56:43;;;;;;;5.87;3.40;;;;;;;;;;5033997;28;20217;-54
2022/05/26 04:59:09;;;;;;;5.27;3.63;;;;;;;;;;5051090;28;20208;-54
2022/05/26 05:01:35;;;;;;;3.33;2.90;;;;;;;;;;5056129;28;20180;-55
2022/05/26 05:04:01;;;;;;;3.20;2.90;;;;;;;;;;5063438;28;20657;-53
2022/05/26 05:06:28;;;;;;;4.20;3.60;;;;;;;;;;5063426;28;20621;-53
2022/05/26 05:08:54;;;;;;;4.50;3.53;;;;;;;;;;5056937;28;20189;-54
2022/05/26 05:11:20;;;;;;;4.07;3.20;;;;;;;;;;5051747;28;20541;-53
2022/05/26 05:13:46;;;;;;;4.70;3.63;;;;;;;;;;5058784;28;20191;-54
2022/05/26 05:16:15;;;;;;;5.30;3.67;;;;;;;;;;5052042;28;20279;-54
2022/05/26 05:18:41;;;;;;;5.57;3.90;;;;;;;;;;5054540;28;20202;-54
2022/05/26 05:21:11;;;;;;;5.53;3.57;;;;;;;;;;5057901;28;20460;-54
2022/05/26 05:23:41;;;;;;;8.93;3.80;;;;;;;;;;5062106;28;20517;-54
2022/05/26 05:26:15;;;;;;;6.50;3.90;;;;;;;;;;5037939;28;20173;-54
2022/05/26 05:28:44;;;;;;;4.27;3.97;;;;;;;;;;5052050;28;20261;-54
2022/05/26 05:31:13;;;;;;;7.20;4.90;;;;;;;;;;5037014;28;20636;-55
2022/05/26 05:33:44;;;;;;;6.50;5.20;;;;;;;;;;5040120;28;20206;-54
2022/05/26 05:36:16;;;;;;;7.87;4.60;;;;;;;;;;5059993;28;20210;-54
2022/05/26 05:38:43;;;;;;;5.57;4.60;;;;;;;;;;5053316;28;20283;-54
2022/05/26 05:41:10;;;;;;;7.77;4.63;;;;;;;;;;5057109;28;20273;-54
2022/05/26 05:43:36;;;;;;;9.80;4.33;;;;;;;;;;5059096;28;20180;-55
2022/05/26 05:46:08;;;;;;;5.67;5.13;;;;;;;;;;5058479;28;20176;-55
2022/05/26 05:48:35;;;;;;;6.33;4.77;;;;;;;;;;5044743;28;20191;-54
2022/05/26 05:51:05;;;;;;;6.43;4.53;;;;;;;;;;5065729;28;20165;-55
2022/05/26 05:53:46;;;;;;;6.13;4.90;;;;;;;;;;5050159;28;20200;-54
2022/05/26 05:56:12;;;;;;;9.63;5.93;;;;;;;;;;5041511;28;20283;-55
2022/05/26 05:58:38;;;;;;;7.80;5.53;;;;;;;;;;5049432;28;20613;-55
2022/05/26 06:01:06;;;;;;;7.87;5.80;;;;;;;;;;5048001;28;20185;-55
2022/05/26 06:03:34;;;;;;;10.00;6.13;;;;;;;;;;5035807;28;20203;-55
2022/05/26 06:06:00;;;;;;;7.67;6.63;;;;;;;;;;5050463;28;20180;-56
2022/05/26 06:08:37;;;;;;;7.63;5.43;;;;;;;;;;5079002;28;20229;-55
2022/05/26 06:11:04;;;;;;;9.80;6.07;;;;;;;;;;5056326;28;20724;-55
2022/05/26 06:13:33;;;;;;;7.63;5.47;;;;;;;;;;5051615;28;20547;-55
2022/05/26 06:16:00;;;;;;;10.77;6.17;;;;;;;;;;5045930;28;20701;-54
2022/05/26 06:18:26;;;;;;;8.87;5.60;;;;;;;;;;5061073;28;20208;-55
2022/05/26 06:21:00;;;;;;;7.07;5.67;;;;;;;;;;5049069;28;20706;-55
2022/05/26 06:23:26;;;;;;;8.47;5.67;;;;;;;;;;5074440;28;20207;-56
2022/05/26 06:25:52;;;;;;;8.63;5.47;;;;;;;;;;5049687;28;20250;-55
2022/05/26 06:31:06;;;;;;;6.23;5.23;;;;;;;;;;5055463;28;20800;-56
2022/05/26 06:39:06;;;;;;;7.80;6.40;;;;;;;;;;5049132;28;20254;-56
2022/05/26 06:44:45;;;;;;;9.27;5.93;;;;;;;;;;4979338;28;20697;-55
2022/05/26 06:47:17;;;;;;;9.53;6.30;;;;;;;;;;4976120;28;20183;-55
2022/05/26 06:49:43;;;;;;;11.00;6.90;;;;;;;;;;5016626;28;20189;-55
2022/05/26 06:52:11;;;;;;;9.80;6.33;;;;;;;;;;5054175;28;20583;-55
2022/05/26 06:54:39;;;;;;;8.83;6.37;;;;;;;;;;5035045;28;20191;-55
2022/05/26 06:57:06;;;;;;;9.53;6.47;;;;;;;;;;5052053;28;20558;-56
2022/05/26 06:59:32;;;;;;;9.90;6.53;;;;;;;;;;5045020;28;20199;-56
2022/05/26 07:01:59;;;;;;;11.20;6.40;;;;;;;;;;5060339;28;20187;-55
2022/05/26 07:04:25;;;;;;;8.70;6.17;;;;;;;;;;5020231;28;20185;-56
2022/05/26 07:06:53;;;;;;;12.00;6.03;;;;;;;;;;5052636;28;20588;-56
2022/05/26 07:09:20;;;;;;;8.40;5.80;;;;;;;;;;5045437;28;20181;-56
2022/05/26 07:11:47;;;;;;;10.97;6.20;;;;;;;;;;5036963;28;20185;-56
2022/05/26 07:14:16;;;;;;;8.27;6.33;;;;;;;;;;5036517;28;20191;-56
2022/05/26 07:16:44;;;;;;;9.50;6.13;;;;;;;;;;5063839;28;20655;-56
2022/05/26 07:19:12;;;;;;;9.60;6.40;;;;;;;;;;5054302;28;20629;-56
2022/05/26 07:21:39;;;;;;;8.27;5.93;;;;;;;;;;5056229;28;20650;-55
2022/05/26 07:24:05;;;;;;;8.90;6.70;;;;;;;;;;5058771;28;20609;-55
2022/05/26 07:26:32;;;;;;;7.93;6.43;;;;;;;;;;5050318;28;20230;-55
2022/05/26 07:28:59;;;;;;;8.90;6.40;;;;;;;;;;5062889;28;20176;-55
2022/05/26 07:31:28;;;;;;;10.17;6.27;;;;;;;;;;5049093;28;20192;-55
2022/05/26 07:33:55;;;;;;;8.80;7.40;;;;;;;;;;5056872;28;20256;-55
2022/05/26 07:42:12;;;;;;;7.80;6.37;;;;;;;;;;5065823;28;20188;-56
2022/05/26 07:44:40;;;;;;;8.90;7.13;;;;;;;;;;5054360;28;20177;-55
2022/05/26 07:47:07;;;;;;;9.00;6.23;;;;;;;;;;5044192;28;20639;-55
2022/05/26 07:49:36;;;;;;;8.67;5.90;;;;;;;;;;5026614;28;20585;-56
2022/05/26 07:52:02;;;;;;;8.07;6.63;;;;;;;;;;5058689;28;20630;-56
2022/05/26 07:54:29;;;;;;;7.87;6.30;;;;;;;;;;5034812;28;20419;-56
2022/05/26 07:56:56;;;;;;;10.70;6.60;;;;;;;;;;5065601;28;20626;-56
2022/05/26 07:59:22;;;;;;;7.27;5.97;;;;;;;;;;5039479;28;20731;-56
2022/05/26 08:01:49;;;;;;;9.40;5.90;;;;;;;;;;5050872;28;20753;-55
2022/05/26 08:04:16;;;;;;;8.83;6.47;;;;;;;;;;5040506;28;20191;-55
2022/05/26 08:06:46;;;;;;;9.37;6.07;;;;;;;;;;5040240;28;20227;-55
2022/05/26 08:09:20;;;;;;;10.47;6.87;;;;;;;;;;5035053;28;20185;-56
2022/05/26 08:11:46;;;;;;;9.77;6.70;;;;;;;;;;5051530;28;20188;-55
2022/05/26 08:14:12;;;;;;;11.10;6.67;;;;;;;;;;5044810;28;20272;-56
2022/05/26 08:16:39;;;;;;;8.37;6.57;;;;;;;;;;5037167;28;20204;-56
2022/05/26 08:19:06;;;;;;;9.77;6.50;;;;;;;;;;5034558;28;20204;-55
2022/05/26 08:21:36;;;;;;;8.90;6.57;;;;;;;;;;5070792;28;20820;-55
2022/05/26 08:24:02;;;;;;;7.53;6.13;;;;;;;;;;5052217;28;20191;-55
2022/05/26 08:26:30;;;;;;;6.33;5.73;;;;;;;;;;5068313;28;20180;-55
2022/05/26 08:28:57;;;;;;;6.60;5.63;;;;;;;;;;5030979;28;20181;-56
2022/05/26 08:31:27;;;;;;;8.10;6.33;;;;;;;;;;5045546;28;20715;-56
2022/05/26 08:33:54;;;;;;;6.80;5.93;;;;;;;;;;5051475;28;20188;-55
2022/05/26 08:36:24;;;;;;;5.97;5.23;;;;;;;;;;5042733;28;20181;-55
2022/05/26 08:38:52;;;;;;;12.17;7.10;;;;;;;;;;5055552;28;20220;-56
2022/05/26 08:41:23;;;;;;;9.87;6.70;;;;;;;;;;5030978;28;20184;-56
2022/05/26 08:44:01;;;;;;;8.50;5.40;;;;;;;;;;5048319;28;20612;-56
2022/05/26 08:46:47;;;;;;;6.80;6.10;;;;;;;;;;5055936;28;20172;-55
2022/05/26 08:49:19;;;;;;;7.57;6.63;;;;;;;;;;5069359;28;20191;-55
2022/05/26 08:51:56;;;;;;;7.23;6.20;;;;;;;;;;5055316;28;20600;-55
2022/05/26 08:54:26;;;;;;;9.37;5.23;;;;;;;;;;5051027;28;20195;-56
2022/05/26 08:56:55;;;;;;;6.83;5.20;;;;;;;;;;5072246;28;20184;-55
2022/05/26 08:59:23;;;;;;;11.90;5.77;;;;;;;;;;5048228;28;20192;-55
2022/05/26 09:01:50;;;;;;;8.23;5.57;;;;;;;;;;5044101;28;20184;-56
2022/05/26 09:04:16;;;;;;;9.43;6.60;;;;;;;;;;5037885;28;20168;-56
2022/05/26 09:15:06;;;;;;;7.10;5.87;;;;;;;;;;5049972;28;20196;-55
2022/05/26 09:17:32;;;;;;;8.23;5.90;;;;;;;;;;5038451;28;20173;-56
2022/05/26 09:20:02;;;;;;;9.00;5.67;;;;;;;;;;5038417;28;20250;-56
2022/05/26 09:22:32;;;;;;;6.88;6.15;;;;;;;;;;5043856;28;20412;-55
2022/05/26 09:24:59;;;;;;;7.40;5.83;;;;;;;;;;5036652;28;20260;-55
2022/05/26 09:27:39;;;;;;;8.47;6.03;;;;;;;;;;5038420;28;20649;-56
2022/05/26 09:30:22;;;;;;;6.77;5.87;;;;;;;;;;5047701;28;20196;-55
2022/05/26 09:32:52;;;;;;;9.57;6.20;;;;;;;;;;5062300;28;20174;-55
2022/05/26 09:35:25;;;;;;;6.30;5.70;;;;;;;;;;5042987;28;20276;-56
2022/05/26 09:37:56;;;;;;;6.87;5.97;;;;;;;;;;5062396;28;20192;-55
2022/05/26 09:40:22;;;;;;;9.17;5.43;;;;;;;;;;5039559;28;20533;-55
2022/05/26 09:42:51;;;;;;;8.73;6.30;;;;;;;;;;5042711;28;20181;-56
2022/05/26 09:45:18;;;;;;;7.13;5.50;;;;;;;;;;5059207;28;20173;-56
2022/05/26 09:47:44;;;;;;;7.97;6.30;;;;;;;;;;5034195;28;20180;-56
2022/05/26 09:50:15;;;;;;;7.47;5.93;;;;;;;;;;5060524;28;20172;-55
2022/05/26 09:52:44;;;;;;;7.47;5.73;;;;;;;;;;5030120;28;20666;-56
2022/05/26 09:55:21;;;;;;;6.40;5.60;;;;;;;;;;5062304;28;20260;-56
2022/05/26 09:57:48;;;;;;;6.30;5.70;;;;;;;;;;5034632;28;20212;-57
2022/05/26 10:00:16;;;;;;;6.73;5.90;;;;;;;;;;5051492;28;20533;-55
2022/05/26 10:02:42;;;;;;;6.00;4.60;;;;;;;;;;5041607;28;20678;-55
2022/05/26 10:05:12;;;;;;;6.37;5.27;;;;;;;;;;5038170;28;20173;-57
2022/05/26 10:07:50;;;;;;;8.60;5.13;;;;;;;;;;5046763;28;20682;-56
2022/05/26 10:10:20;;;;;;;5.83;5.23;;;;;;;;;;5040354;28;20181;-56
2022/05/26 10:12:46;;;;;;;8.83;6.33;;;;;;;;;;5050095;28;20184;-56
2022/05/26 10:15:21;;;;;;;7.93;5.50;;;;;;;;;;5050799;28;20663;-55
2022/05/26 10:17:57;;;;;;;6.17;5.37;;;;;;;;;;5048818;28;20178;-56
2022/05/26 10:20:41;;;;;;;5.43;4.70;;;;;;;;;;5050711;28;20676;-57
2022/05/26 10:23:26;;;;;;;7.17;5.00;;;;;;;;;;5022699;28;20168;-55
2022/05/26 10:26:13;;;;;;;5.70;4.40;;;;;;;;;;5060468;28;20690;-56
2022/05/26 10:28:39;;;;;;;5.37;4.13;;;;;;;;;;5046336;28;20170;-56
2022/05/26 10:31:12;;;;;;;6.87;4.40;;;;;;;;;;5036220;28;20184;-56
2022/05/26 10:33:41;;;;;;;5.20;4.40;;;;;;;;;;5057982;28;20246;-56
2022/05/26 10:36:10;;;;;;;10.87;4.47;;;;;;;;;;5058631;28;20567;-55
2022/05/26 10:39:02;;;;;;;6.70;4.83;;;;;;;;;;5045031;28;20184;-55
2022/05/26 10:41:28;;;;;;;5.90;4.60;;;;;;;;;;5065353;28;20168;-55
2022/05/26 10:43:57;;;;;;;5.63;4.13;;;;;;;;;;5046683;28;20236;-54
2022/05/26 10:46:27;;;;;;;5.60;4.13;;;;;;;;;;5063857;28;20207;-54
2022/05/26 10:49:13;;;;;;;7.10;4.10;;;;;;;;;;5036449;28;20650;-54
2022/05/26 10:51:44;;;;;;;5.00;3.80;;;;;;;;;;5045127;28;20234;-54
2022/05/26 10:54:16;;;;;;;4.37;3.73;;;;;;;;;;5041969;28;20199;-55
2022/05/26 10:56:48;;;;;;;7.60;4.10;;;;;;;;;;5036486;28;20482;-55
2022/05/26 10:59:23;;;;;;;5.93;4.10;;;;;;;;;;5061384;28;20203;-55
2022/05/26 11:01:52;;;;;;;5.27;3.33;;;;;;;;;;5039741;28;20541;-55
2022/05/26 11:04:43;;;;;;;4.33;3.40;;;;;;;;;;5044737;28;20168;-55
2022/05/26 11:07:16;;;;;;;3.97;3.57;;;;;;;;;;5056462;28;20303;-55
2022/05/26 11:10:01;;;;;;;4.50;3.43;;;;;;;;;;5050838;28;20165;-54
2022/05/26 11:12:32;;;;;;;6.93;3.73;;;;;;;;;;5042053;28;20168;-55
2022/05/26 11:18:13;;;;;;;4.93;3.90;;;;;;;;;;5067150;28;20207;-55
2022/05/26 11:20:43;;;;;;;6.53;3.67;;;;;;;;;;5059998;28;20172;-55
2022/05/26 11:23:09;;;;;;;4.30;3.33;;;;;;;;;;5055262;28;20173;-55
2022/05/26 11:25:46;;;;;;;6.13;3.70;;;;;;;;;;5044464;28;20446;-55
2022/05/26 11:28:26;;;;;;;12.07;3.73;;;;;;;;;;5048383;28;20208;-55
2022/05/26 11:36:49;;;;;;;5.83;3.10;;;;;;;;;;5066263;28;20322;-55
2022/05/26 11:39:21;;;;;;;5.33;3.53;;;;;;;;;;5027935;28;20204;-55
2022/05/26 11:41:58;;;;;;;5.00;3.43;;;;;;;;;;5074560;28;20528;-56
2022/05/26 11:44:44;;;;;;;3.93;3.63;;;;;;;;;;5068505;28;20180;-54
2022/05/26 11:47:31;;;;;;;3.50;3.20;;;;;;;;;;5034773;28;20197;-55
2022/05/26 11:49:57;;;;;;;3.97;3.58;;;;;;;;;;5038525;28;20715;-54
2022/05/26 11:52:35;;;;;;;7.30;3.60;;;;;;;;;;5025474;28;20208;-56
2022/05/26 11:55:07;;;;;;;6.27;3.80;;;;;;;;;;5035194;28;20184;-54
2022/05/26 11:57:38;;;;;;;7.00;6.40;;;;;;;;;;5042689;28;20662;-55
2022/05/26 12:00:22;;;;;;;6.23;4.40;;;;;;;;;;5062688;28;20546;-55
2022/05/26 12:02:51;;;;;;;6.43;3.50;;;;;;;;;;5048896;28;20873;-55
2022/05/26 12:05:29;;;;;;;4.73;3.70;;;;;;;;;;5037165;28;20616;-55
2022/05/26 12:08:00;;;;;;;3.70;3.30;;;;;;;;;;5060490;28;20222;-53
2022/05/26 12:10:31;;;;;;;4.87;3.73;;;;;;;;;;5047863;28;20174;-54
2022/05/26 12:13:16;;;;;;;4.60;4.17;;;;;;;;;;5047720;28;20894;-55
2022/05/26 12:16:02;;;;;;;7.43;3.97;;;;;;;;;;5051508;28;20946;-55
2022/05/26 12:18:37;;;;;;;5.27;3.90;;;;;;;;;;5067441;28;20737;-54
2022/05/26 12:21:19;;;;;;;5.47;4.53;;;;;;;;;;5058285;28;20163;-55
2022/05/26 12:23:45;;;;;;;5.27;3.83;;;;;;;;;;5057970;28;20238;-55
2022/05/26 12:26:29;;;;;;;4.33;3.93;;;;;;;;;;5046443;28;20180;-54
2022/05/26 12:28:56;;;;;;;4.60;3.90;;;;;;;;;;5045336;28;20181;-55
2022/05/26 12:31:23;;;;;;;3.70;3.30;;;;;;;;;;5036535;28;20200;-55
2022/05/26 12:34:08;;;;;;;4.40;3.93;;;;;;;;;;5065225;28;20575;-54
2022/05/26 12:36:56;;;;;;;5.33;3.87;;;;;;;;;;5045201;28;20183;-55
2022/05/26 12:39:47;;;;;;;4.63;3.70;;;;;;;;;;5042818;28;20815;-55
2022/05/26 12:42:21;;;;;;;4.20;3.80;;;;;;;;;;5059563;28;20176;-55
2022/05/26 12:45:03;;;;;;;4.63;3.63;;;;;;;;;;5049590;28;20173;-55
2022/05/26 12:47:47;;;;;;;4.77;3.30;;;;;;;;;;5044957;28;20650;-54
2022/05/26 12:50:22;;;;;;;4.40;3.53;;;;;;;;;;5048653;28;20264;-55
2022/05/26 12:52:48;;;;;;;6.17;3.80;;;;;;;;;;5051538;28;20210;-54
2022/05/26 12:55:21;;;;;;;4.37;3.70;;;;;;;;;;5041112;28;20180;-55
2022/05/26 12:58:07;;;;;;;5.37;3.90;;;;;;;;;;5062172;28;20214;-55
2022/05/26 13:00:35;;;;;;;3.70;3.30;;;;;;;;;;5034825;28;20186;-55
2022/05/26 13:03:10;;;;;;;5.93;3.90;;;;;;;;;;5048985;28;20183;-55
2022/05/26 13:05:38;;;;;;;6.63;3.80;;;;;;;;;;5038169;28;20257;-54
2022/05/26 13:08:05;;;;;;;8.20;3.77;;;;;;;;;;5065656;28;20216;-55
2022/05/26 13:10:39;;;;;;;6.90;4.83;;;;;;;;;;5049754;28;20186;-54
2022/05/26 13:13:13;;;;;;;4.77;3.20;;;;;;;;;;5065187;28;20205;-55
2022/05/26 13:15:39;;;;;;;6.63;3.30;;;;;;;;;;5037253;28;20889;-55
2022/05/26 13:18:06;;;;;;;3.37;3.07;;;;;;;;;;5050468;28;20203;-54
2022/05/26 13:20:35;;;;;;;7.43;4.20;;;;;;;;;;5040336;28;20237;-54
2022/05/26 13:23:04;;;;;;;6.43;3.53;;;;;;;;;;5044863;28;20191;-55
2022/05/26 13:25:32;;;;;;;4.20;3.43;;;;;;;;;;5062390;28;20207;-55
2022/05/26 13:28:13;;;;;;;3.57;3.03;;;;;;;;;;5038845;28;20193;-55
2022/05/26 13:33:28;;;;;;;3.87;3.40;;;;;;;;;;5063041;28;20799;-55
2022/05/26 13:36:03;;;;;;;5.37;3.40;;;;;;;;;;5047563;28;20264;-54
2022/05/26 13:38:37;;;;;;;5.17;3.30;;;;;;;;;;5038842;28;20220;-55
2022/05/26 13:41:04;;;;;;;5.73;4.67;;;;;;;;;;5061801;28;20208;-55
2022/05/26 13:43:42;;;;;;;3.83;3.53;;;;;;;;;;5061447;28;20181;-55
2022/05/26 13:46:08;;;;;;;3.37;3.07;;;;;;;;;;5058441;28;20568;-55
2022/05/26 13:48:37;;;;;;;3.40;3.10;;;;;;;;;;5061424;28;20194;-55
2022/05/26 13:51:22;;;;;;;3.97;3.27;;;;;;;;;;5060350;28;20184;-55
2022/05/26 13:53:50;;;;;;;4.37;3.83;;;;;;;;;;5055693;28;20267;-55
2022/05/26 13:56:28;;;;;;;5.20;3.67;;;;;;;;;;5052463;28;20192;-55
2022/05/26 13:58:56;;;;;;;6.27;3.70;;;;;;;;;;5024922;28;20564;-56
2022/05/26 14:01:26;;;;;;;5.77;5.27;;;;;;;;;;5070747;28;20181;-55
2022/05/26 14:03:58;;;;;;;6.13;3.60;;;;;;;;;;5054754;28;20185;-56
2022/05/26 14:06:29;;;;;;;6.60;3.90;;;;;;;;;;5056424;28;20303;-56
2022/05/26 14:09:05;;;;;;;4.47;3.43;;;;;;;;;;5028120;28;20218;-56
2022/05/26 14:11:42;;;;;;;3.73;3.43;;;;;;;;;;5047212;28;20888;-55
2022/05/26 14:14:28;;;;;;;4.67;3.47;;;;;;;;;;5038906;28;20189;-56
2022/05/26 14:16:58;;;;;;;3.43;3.13;;;;;;;;;;5038405;28;20178;-55
2022/05/26 14:19:45;;;;;;;5.83;3.73;;;;;;;;;;5054855;28;20203;-56
2022/05/26 14:22:15;;;;;;;7.67;7.10;;;;;;;;;;5033161;28;20177;-55
2022/05/26 14:24:53;;;;;;;4.03;3.03;;;;;;;;;;5045375;28;20184;-57
2022/05/26 14:27:21;;;;;;;7.37;3.50;;;;;;;;;;5031468;28;20184;-54
2022/05/26 14:29:54;;;;;;;4.93;3.73;;;;;;;;;;5042900;28;20234;-54
2022/05/26 14:32:23;;;;;;;4.83;3.40;;;;;;;;;;5045430;28;20182;-55
2022/05/26 14:35:09;;;;;;;7.70;3.70;;;;;;;;;;5041242;28;20659;-54
2022/05/26 14:37:39;;;;;;;4.83;3.00;;;;;;;;;;5044455;28;20198;-54
2022/05/26 14:40:05;;;;;;;4.83;3.63;;;;;;;;;;5068458;28;20279;-54
2022/05/26 14:42:33;;;;;;;4.67;3.40;;;;;;;;;;5042049;28;20659;-54
2022/05/26 14:44:59;;;;;;;5.63;3.43;;;;;;;;;;5036203;28;20178;-55
2022/05/26 14:47:26;;;;;;;6.50;3.83;;;;;;;;;;5037590;28;20733;-56
2022/05/26 14:49:55;;;;;;;6.93;3.90;;;;;;;;;;5042123;28;20185;-56
2022/05/26 14:52:26;;;;;;;5.07;3.43;;;;;;;;;;5044333;28;20219;-54
2022/05/26 14:57:37;;;;;;;4.00;3.17;;;;;;;;;;5055009;28;20676;-54
2022/05/26 15:00:07;;;;;;;4.53;3.37;;;;;;;;;;5036645;28;20216;-54
2022/05/26 15:02:34;;;;;;;4.77;4.00;;;;;;;;;;5060450;28;20177;-54
2022/05/26 15:05:01;;;;;;;5.00;3.30;;;;;;;;;;5053135;28;20180;-55
2022/05/26 15:07:27;;;;;;;6.17;4.00;;;;;;;;;;5069108;28;20224;-54
2022/05/26 15:09:53;;;;;;;7.90;4.27;;;;;;;;;;5042259;28;20725;-54
2022/05/26 15:12:19;;;;;;;6.73;3.87;;;;;;;;;;5045436;28;20276;-55
2022/05/26 15:14:48;;;;;;;6.53;4.10;;;;;;;;;;5044767;28;20189;-54
2022/05/26 15:17:18;;;;;;;5.97;3.73;;;;;;;;;;5054567;28;20248;-54
2022/05/26 15:19:52;;;;;;;5.50;3.87;;;;;;;;;;5044917;28;20387;-54
2022/05/26 15:22:19;;;;;;;5.27;4.23;;;;;;;;;;5050181;28;20231;-54
2022/05/26 15:24:46;;;;;;;6.53;4.50;;;;;;;;;;5046452;28;20185;-54
2022/05/26 15:27:14;;;;;;;8.67;4.40;;;;;;;;;;5053400;28;20176;-54
2022/05/26 15:29:41;;;;;;;7.93;3.90;;;;;;;;;;5043137;28;20188;-55
2022/05/26 15:32:11;;;;;;;5.03;3.97;;;;;;;;;;5040252;28;20185;-56
2022/05/26 15:34:42;;;;;;;4.73;3.23;;;;;;;;;;5058414;28;20286;-54
2022/05/26 15:37:08;;;;;;;6.93;3.60;;;;;;;;;;5062765;28;20546;-54
2022/05/26 15:39:35;;;;;;;4.77;3.67;;;;;;;;;;5034723;28;20212;-57
2022/05/26 15:42:01;;;;;;;3.60;3.07;;;;;;;;;;5068107;28;20188;-56
2022/05/26 15:44:32;;;;;;;7.87;3.40;;;;;;;;;;5028733;28;20639;-55
2022/05/26 15:47:01;;;;;;;5.07;3.30;;;;;;;;;;5042012;28;20238;-55
2022/05/26 15:49:27;;;;;;;4.63;3.60;;;;;;;;;;5039149;28;20199;-57
2022/05/26 15:52:00;;;;;;;5.77;3.30;;;;;;;;;;5055570;28;20666;-54
2022/05/26 15:54:27;;;;;;;3.33;3.00;;;;;;;;;;5033436;28;20193;-54
2022/05/26 15:56:54;;;;;;;6.17;3.30;;;;;;;;;;5050337;28;20272;-53